sensor_id;sensor_type;location;lat;lon;timestamp;pressure;altitude;pressure_sealevel;temperature;humidity
27202;BME280;14717;46.924;15.474;2023-01-29T00:01:51;98614.44;;;1.03;100.00
27202;BME280;14717;46.924;15.474;2023-01-29T00:04:17;98612.41;;;0.92;100.00
27202;BME280;14717;46.924;15.474;2023-01-29T00:06:43;98612.81;;;0.96;100.00
27202;BME280;14717;46.924;15.474;2023-01-29T00:09:09;98613.22;;;1.06;100.00
27202;BME280;14717;46.924;15.474;2023-01-29T00:11:34;98614.19;;;1.18;100.00
27202;BME280;14717;46.924;15.474;2023-01-29T00:14:00;98615.22;;;1.17;100.00
27202;BME280;14717;46.924;15.474;2023-01-29T00:16:26;98616.91;;;1.18;100.00
27202;BME280;14717;46.924;15.474;2023-01-29T00:18:53;98612.28;;;1.25;100.00
27202;BME280;14717;46.924;15.474;2023-01-29T00:21:20;98619.84;;;1.16;100.00
27202;BME280;14717;46.924;15.474;2023-01-29T00:23:46;98614.81;;;1.20;100.00
27202;BME280;14717;46.924;15.474;2023-01-29T00:26:13;98619.81;;;1.23;100.00
27202;BME280;14717;46.924;15.474;2023-01-29T00:28:41;98623.59;;;1.22;100.00
27202;BME280;14717;46.924;15.474;2023-01-29T00:33:33;98623.16;;;1.25;100.00
27202;BME280;14717;46.924;15.474;2023-01-29T00:36:10;98621.50;;;1.24;100.00
27202;BME280;14717;46.924;15.474;2023-01-29T00:38:37;98621.94;;;1.21;100.00
27202;BME280;14717;46.924;15.474;2023-01-29T00:43:51;98626.94;;;1.24;100.00
27202;BME280;14717;46.924;15.474;2023-01-29T00:46:35;98624.03;;;1.19;100.00
27202;BME280;14717;46.924;15.474;2023-01-29T00:49:06;98622.34;;;1.18;100.00
27202;BME280;14717;46.924;15.474;2023-01-29T00:51:34;98629.72;;;1.11;100.00
27202;BME280;14717;46.924;15.474;2023-01-29T00:54:00;98624.47;;;1.09;100.00
27202;BME280;14717;46.924;15.474;2023-01-29T00:56:28;98627.00;;;1.11;100.00
27202;BME280;14717;46.924;15.474;2023-01-29T00:58:54;98623.19;;;1.18;100.00
27202;BME280;14717;46.924;15.474;2023-01-29T01:01:20;98628.22;;;1.15;100.00
27202;BME280;14717;46.924;15.474;2023-01-29T01:04:06;98626.59;;;1.01;100.00
27202;BME280;14717;46.924;15.474;2023-01-29T01:06:31;98633.50;;;0.97;100.00
27202;BME280;14717;46.924;15.474;2023-01-29T01:08:57;98633.69;;;1.02;100.00
27202;BME280;14717;46.924;15.474;2023-01-29T01:11:41;98622.38;;;1.11;100.00
27202;BME280;14717;46.924;15.474;2023-01-29T01:14:06;98630.31;;;1.19;100.00
27202;BME280;14717;46.924;15.474;2023-01-29T01:16:32;98627.38;;;1.21;100.00
27202;BME280;14717;46.924;15.474;2023-01-29T01:18:59;98632.19;;;1.19;100.00
27202;BME280;14717;46.924;15.474;2023-01-29T01:21:25;98629.28;;;1.14;100.00
27202;BME280;14717;46.924;15.474;2023-01-29T01:23:50;98632.00;;;1.14;100.00
27202;BME280;14717;46.924;15.474;2023-01-29T01:26:18;98629.28;;;1.14;100.00
27202;BME280;14717;46.924;15.474;2023-01-29T01:28:44;98622.16;;;1.13;100.00
27202;BME280;14717;46.924;15.474;2023-01-29T01:31:12;98630.31;;;1.13;100.00
27202;BME280;14717;46.924;15.474;2023-01-29T01:33:39;98626.34;;;1.15;100.00
27202;BME280;14717;46.924;15.474;2023-01-29T01:36:13;98627.38;;;1.21;100.00
27202;BME280;14717;46.924;15.474;2023-01-29T01:38:42;98634.91;;;1.19;100.00
27202;BME280;14717;46.924;15.474;2023-01-29T01:41:15;98631.13;;;1.20;100.00
27202;BME280;14717;46.924;15.474;2023-01-29T01:44:03;98626.94;;;1.24;100.00
27202;BME280;14717;46.924;15.474;2023-01-29T01:46:32;98645.34;;;1.22;100.00
27202;BME280;14717;46.924;15.474;2023-01-29T01:49:13;98643.31;;;1.11;100.00
27202;BME280;14717;46.924;15.474;2023-01-29T01:51:52;98650.47;;;0.99;100.00
27202;BME280;14717;46.924;15.474;2023-01-29T01:54:28;98645.03;;;0.99;100.00
27202;BME280;14717;46.924;15.474;2023-01-29T01:57:06;98659.25;;;1.01;100.00
27202;BME280;14717;46.924;15.474;2023-01-29T01:59:42;98650.28;;;0.94;100.00
27202;BME280;14717;46.924;15.474;2023-01-29T02:02:11;98654.41;;;1.03;100.00
27202;BME280;14717;46.924;15.474;2023-01-29T02:04:58;98656.91;;;1.11;100.00
27202;BME280;14717;46.924;15.474;2023-01-29T02:07:45;98657.53;;;1.13;100.00
27202;BME280;14717;46.924;15.474;2023-01-29T02:10:35;98661.72;;;1.15;100.00
27202;BME280;14717;46.924;15.474;2023-01-29T02:13:04;98658.81;;;1.10;100.00
27202;BME280;14717;46.924;15.474;2023-01-29T02:15:30;98661.38;;;0.92;100.00
27202;BME280;14717;46.924;15.474;2023-01-29T02:17:56;98661.38;;;0.92;100.00
27202;BME280;14717;46.924;15.474;2023-01-29T02:20:26;98665.31;;;0.96;100.00
27202;BME280;14717;46.924;15.474;2023-01-29T02:32:07;98674.75;;;0.87;100.00
27202;BME280;14717;46.924;15.474;2023-01-29T02:37:39;98682.50;;;0.90;100.00
27202;BME280;14717;46.924;15.474;2023-01-29T02:43:26;98679.53;;;0.98;100.00
27202;BME280;14717;46.924;15.474;2023-01-29T02:49:03;98671.38;;;0.98;100.00
27202;BME280;14717;46.924;15.474;2023-01-29T02:54:26;98675.53;;;1.14;100.00
27202;BME280;14717;46.924;15.474;2023-01-29T02:57:00;98680.13;;;1.07;100.00
27202;BME280;14717;46.924;15.474;2023-01-29T02:59:41;98679.75;;;0.97;100.00
27202;BME280;14717;46.924;15.474;2023-01-29T03:02:16;98684.78;;;0.93;100.00
27202;BME280;14717;46.924;15.474;2023-01-29T03:04:48;98688.97;;;0.96;100.00
27202;BME280;14717;46.924;15.474;2023-01-29T03:07:31;98687.47;;;1.00;100.00
27202;BME280;14717;46.924;15.474;2023-01-29T03:12:48;98685.44;;;0.89;100.00
27202;BME280;14717;46.924;15.474;2023-01-29T03:15:17;98680.41;;;0.92;100.00
27202;BME280;14717;46.924;15.474;2023-01-29T03:18:09;98681.41;;;0.98;100.00
27202;BME280;14717;46.924;15.474;2023-01-29T03:20:40;98687.66;;;1.05;100.00
27202;BME280;14717;46.924;15.474;2023-01-29T03:23:16;98684.56;;;0.95;100.00
27202;BME280;14717;46.924;15.474;2023-01-29T03:25:54;98683.31;;;0.97;100.00
27202;BME280;14717;46.924;15.474;2023-01-29T03:28:42;98684.53;;;1.08;100.00
27202;BME280;14717;46.924;15.474;2023-01-29T03:31:29;98688.47;;;1.12;100.00
27202;BME280;14717;46.924;15.474;2023-01-29T03:34:21;98693.53;;;1.02;100.00
27202;BME280;14717;46.924;15.474;2023-01-29T03:36:56;98689.38;;;0.86;100.00
27202;BME280;14717;46.924;15.474;2023-01-29T03:39:27;98684.38;;;0.90;100.00
27202;BME280;14717;46.924;15.474;2023-01-29T03:47:53;98703.38;;;1.03;100.00
27202;BME280;14717;46.924;15.474;2023-01-29T03:53:03;98696.72;;;0.86;100.00
27202;BME280;14717;46.924;15.474;2023-01-29T03:55:39;98701.34;;;0.79;100.00
27202;BME280;14717;46.924;15.474;2023-01-29T04:01:00;98701.13;;;0.74;100.00
27202;BME280;14717;46.924;15.474;2023-01-29T04:03:36;98702.56;;;0.77;100.00
27202;BME280;14717;46.924;15.474;2023-01-29T04:06:18;98696.53;;;0.68;100.00
27202;BME280;14717;46.924;15.474;2023-01-29T04:11:29;98706.56;;;0.74;100.00
27202;BME280;14717;46.924;15.474;2023-01-29T04:13:55;98702.56;;;0.83;100.00
27202;BME280;14717;46.924;15.474;2023-01-29T04:16:28;98691.50;;;0.84;100.00
27202;BME280;14717;46.924;15.474;2023-01-29T04:18:55;98693.78;;;0.87;100.00
27202;BME280;14717;46.924;15.474;2023-01-29T04:21:21;98695.22;;;0.90;100.00
27202;BME280;14717;46.924;15.474;2023-01-29T04:23:47;98692.31;;;0.85;100.00
27202;BME280;14717;46.924;15.474;2023-01-29T04:31:34;98693.19;;;0.66;100.00
27202;BME280;14717;46.924;15.474;2023-01-29T04:36:58;98698.63;;;0.53;100.00
27202;BME280;14717;46.924;15.474;2023-01-29T04:45:19;98710.13;;;0.42;100.00
27202;BME280;14717;46.924;15.474;2023-01-29T04:55:48;98717.66;;;0.41;100.00
27202;BME280;14717;46.924;15.474;2023-01-29T05:00:45;98713.03;;;0.41;100.00
27202;BME280;14717;46.924;15.474;2023-01-29T05:03:14;98709.69;;;0.45;100.00
27202;BME280;14717;46.924;15.474;2023-01-29T05:05:42;98708.69;;;0.53;100.00
27202;BME280;14717;46.924;15.474;2023-01-29T05:08:11;98706.16;;;0.64;100.00
27202;BME280;14717;46.924;15.474;2023-01-29T05:10:38;98704.06;;;0.66;100.00
27202;BME280;14717;46.924;15.474;2023-01-29T05:13:05;98701.56;;;0.65;100.00
27202;BME280;14717;46.924;15.474;2023-01-29T05:15:39;98698.63;;;0.66;100.00
27202;BME280;14717;46.924;15.474;2023-01-29T05:18:07;98692.78;;;0.69;100.00
27202;BME280;14717;46.924;15.474;2023-01-29T05:20:35;98692.78;;;0.69;100.00
27202;BME280;14717;46.924;15.474;2023-01-29T05:23:02;98705.72;;;0.74;100.00
27202;BME280;14717;46.924;15.474;2023-01-29T05:25:30;98705.31;;;0.70;100.00
27202;BME280;14717;46.924;15.474;2023-01-29T05:27:56;98713.88;;;0.61;100.00
27202;BME280;14717;46.924;15.474;2023-01-29T05:30:40;98704.47;;;0.57;100.00
27202;BME280;14717;46.924;15.474;2023-01-29T05:33:17;98713.03;;;0.67;100.00
27202;BME280;14717;46.924;15.474;2023-01-29T05:35:43;98704.69;;;0.68;100.00
27202;BME280;14717;46.924;15.474;2023-01-29T05:38:08;98705.31;;;0.70;100.00
27202;BME280;14717;46.924;15.474;2023-01-29T05:40:34;98708.69;;;0.66;100.00
27202;BME280;14717;46.924;15.474;2023-01-29T05:43:00;98709.91;;;0.63;100.00
27202;BME280;14717;46.924;15.474;2023-01-29T05:45:25;98714.53;;;0.63;100.00
27202;BME280;14717;46.924;15.474;2023-01-29T05:47:54;98715.34;;;0.63;100.00
27202;BME280;14717;46.924;15.474;2023-01-29T05:50:20;98705.31;;;0.64;100.00
27202;BME280;14717;46.924;15.474;2023-01-29T05:52:45;98712.00;;;0.61;100.00
27202;BME280;14717;46.924;15.474;2023-01-29T05:55:11;98704.69;;;0.55;100.00
27202;BME280;14717;46.924;15.474;2023-01-29T05:57:38;98707.00;;;0.52;100.00
27202;BME280;14717;46.924;15.474;2023-01-29T06:00:04;98706.56;;;0.48;100.00
27202;BME280;14717;46.924;15.474;2023-01-29T06:02:30;98701.75;;;0.50;100.00
27202;BME280;14717;46.924;15.474;2023-01-29T06:04:56;98703.66;;;0.43;100.00
27202;BME280;14717;46.924;15.474;2023-01-29T06:07:21;98712.00;;;0.36;100.00
27202;BME280;14717;46.924;15.474;2023-01-29T06:09:47;98714.50;;;0.18;100.00
27202;BME280;14717;46.924;15.474;2023-01-29T06:12:12;98710.75;;;0.19;100.00
27202;BME280;14717;46.924;15.474;2023-01-29T06:14:37;98722.41;;;0.13;100.00
27202;BME280;14717;46.924;15.474;2023-01-29T06:17:03;98721.16;;;0.02;100.00
27202;BME280;14717;46.924;15.474;2023-01-29T06:19:29;98721.97;;;-0.03;100.00
27202;BME280;14717;46.924;15.474;2023-01-29T06:21:54;98734.50;;;-0.09;100.00
27202;BME280;14717;46.924;15.474;2023-01-29T06:24:20;98740.09;;;-0.17;100.00
27202;BME280;14717;46.924;15.474;2023-01-29T06:26:45;98738.22;;;-0.23;100.00
27202;BME280;14717;46.924;15.474;2023-01-29T06:29:10;98736.59;;;-0.11;100.00
27202;BME280;14717;46.924;15.474;2023-01-29T06:31:36;98733.22;;;-0.19;100.00
27202;BME280;14717;46.924;15.474;2023-01-29T06:34:01;98742.00;;;-0.17;100.00
27202;BME280;14717;46.924;15.474;2023-01-29T06:36:27;98740.31;;;-0.12;100.00
27202;BME280;14717;46.924;15.474;2023-01-29T06:38:53;98741.16;;;-0.05;100.00
27202;BME280;14717;46.924;15.474;2023-01-29T06:41:19;98750.75;;;-0.15;100.00
27202;BME280;14717;46.924;15.474;2023-01-29T06:43:49;98754.53;;;-0.16;100.00
27202;BME280;14717;46.924;15.474;2023-01-29T06:46:15;98756.16;;;-0.22;100.00
27202;BME280;14717;46.924;15.474;2023-01-29T06:48:40;98751.34;;;-0.20;100.00
27202;BME280;14717;46.924;15.474;2023-01-29T06:51:06;98759.94;;;-0.23;100.00
27202;BME280;14717;46.924;15.474;2023-01-29T06:53:33;98755.53;;;-0.24;100.00
27202;BME280;14717;46.924;15.474;2023-01-29T06:55:59;98761.19;;;-0.19;100.00
27202;BME280;14717;46.924;15.474;2023-01-29T06:58:24;98759.13;;;-0.10;100.00
27202;BME280;14717;46.924;15.474;2023-01-29T07:00:50;98761.44;;;-0.07;100.00
27202;BME280;14717;46.924;15.474;2023-01-29T07:03:15;98767.91;;;-0.08;100.00
27202;BME280;14717;46.924;15.474;2023-01-29T07:05:40;98765.59;;;-0.18;100.00
27202;BME280;14717;46.924;15.474;2023-01-29T07:08:06;98769.94;;;-0.23;100.00
27202;BME280;14717;46.924;15.474;2023-01-29T07:10:32;98769.56;;;-0.14;100.00
27202;BME280;14717;46.924;15.474;2023-01-29T07:12:58;98766.03;;;-0.08;100.00
27202;BME280;14717;46.924;15.474;2023-01-29T07:15:24;98767.75;;;0.06;100.00
27202;BME280;14717;46.924;15.474;2023-01-29T07:18:00;98761.94;;;0.22;100.00
27202;BME280;14717;46.924;15.474;2023-01-29T07:20:27;98761.09;;;0.28;100.00
27202;BME280;14717;46.924;15.474;2023-01-29T07:22:53;98755.03;;;0.26;100.00
27202;BME280;14717;46.924;15.474;2023-01-29T07:25:20;98744.81;;;0.15;100.00
27202;BME280;14717;46.924;15.474;2023-01-29T07:27:46;98732.69;;;0.24;100.00
27202;BME280;14717;46.924;15.474;2023-01-29T07:30:11;98738.72;;;0.19;100.00
27202;BME280;14717;46.924;15.474;2023-01-29T07:32:37;98733.31;;;0.26;100.00
27202;BME280;14717;46.924;15.474;2023-01-29T07:35:03;98722.25;;;0.34;100.00
27202;BME280;14717;46.924;15.474;2023-01-29T07:37:28;98719.13;;;0.37;100.00
27202;BME280;14717;46.924;15.474;2023-01-29T07:39:53;98717.41;;;0.23;100.00
27202;BME280;14717;46.924;15.474;2023-01-29T07:42:19;98712.63;;;0.38;100.00
27202;BME280;14717;46.924;15.474;2023-01-29T07:44:44;98721.19;;;0.47;100.00
27202;BME280;14717;46.924;15.474;2023-01-29T07:47:10;98722.06;;;0.54;100.00
27202;BME280;14717;46.924;15.474;2023-01-29T07:49:36;98721.63;;;0.57;100.00
27202;BME280;14717;46.924;15.474;2023-01-29T07:52:01;98722.47;;;0.64;100.00
27202;BME280;14717;46.924;15.474;2023-01-29T07:54:26;98724.97;;;0.59;100.00
27202;BME280;14717;46.924;15.474;2023-01-29T07:56:52;98725.81;;;0.47;100.00
27202;BME280;14717;46.924;15.474;2023-01-29T07:59:17;98713.03;;;0.60;100.00
27202;BME280;14717;46.924;15.474;2023-01-29T08:01:42;98717.03;;;0.64;100.00
27202;BME280;14717;46.924;15.474;2023-01-29T08:04:08;98722.03;;;0.42;100.00
27202;BME280;14717;46.924;15.474;2023-01-29T08:06:33;98720.56;;;0.13;100.00
27202;BME280;14717;46.924;15.474;2023-01-29T08:08:58;98715.31;;;-0.01;100.00
27202;BME280;14717;46.924;15.474;2023-01-29T08:11:24;98708.41;;;-0.03;100.00
27202;BME280;14717;46.924;15.474;2023-01-29T08:13:49;98710.28;;;-0.04;100.00
27202;BME280;14717;46.924;15.474;2023-01-29T08:16:15;98716.31;;;-0.08;100.00
27202;BME280;14717;46.924;15.474;2023-01-29T08:18:40;98717.81;;;-0.06;100.00
27202;BME280;14717;46.924;15.474;2023-01-29T08:21:10;98718.84;;;-0.01;100.00
27202;BME280;14717;46.924;15.474;2023-01-29T08:23:35;98709.84;;;-0.14;100.00
27202;BME280;14717;46.924;15.474;2023-01-29T08:26:02;98719.66;;;-0.19;100.00
27202;BME280;14717;46.924;15.474;2023-01-29T08:28:27;98720.28;;;-0.17;100.00
27202;BME280;14717;46.924;15.474;2023-01-29T08:30:52;98716.53;;;-0.10;100.00
27202;BME280;14717;46.924;15.474;2023-01-29T08:33:18;98717.81;;;-0.06;100.00
27202;BME280;14717;46.924;15.474;2023-01-29T08:35:48;98721.56;;;-0.01;100.00
27202;BME280;14717;46.924;15.474;2023-01-29T08:38:14;98724.09;;;0.07;100.00
27202;BME280;14717;46.924;15.474;2023-01-29T08:40:40;98732.03;;;0.09;100.00
27202;BME280;14717;46.924;15.474;2023-01-29T08:43:06;98734.94;;;0.07;100.00
27202;BME280;14717;46.924;15.474;2023-01-29T08:45:34;98730.56;;;0.13;100.00
27202;BME280;14717;46.924;15.474;2023-01-29T08:48:00;98735.59;;;0.22;100.00
27202;BME280;14717;46.924;15.474;2023-01-29T08:50:26;98730.59;;;0.39;100.00
27202;BME280;14717;46.924;15.474;2023-01-29T08:52:59;98732.72;;;0.49;100.00
27202;BME280;14717;46.924;15.474;2023-01-29T08:55:25;98728.31;;;0.48;100.00
27202;BME280;14717;46.924;15.474;2023-01-29T08:57:50;98723.28;;;0.58;100.00
27202;BME280;14717;46.924;15.474;2023-01-29T09:00:16;98726.63;;;0.73;100.00
27202;BME280;14717;46.924;15.474;2023-01-29T09:02:42;98731.88;;;0.68;100.00
27202;BME280;14717;46.924;15.474;2023-01-29T09:05:08;98731.88;;;0.75;100.00
27202;BME280;14717;46.924;15.474;2023-01-29T09:07:34;98750.47;;;0.84;100.00
27202;BME280;14717;46.924;15.474;2023-01-29T09:09:59;98739.16;;;0.87;100.00
27202;BME280;14717;46.924;15.474;2023-01-29T09:12:25;98740.00;;;0.87;100.00
27202;BME280;14717;46.924;15.474;2023-01-29T09:14:50;98755.88;;;0.97;100.00
27202;BME280;14717;46.924;15.474;2023-01-29T09:17:15;98753.81;;;1.05;100.00
27202;BME280;14717;46.924;15.474;2023-01-29T09:19:41;98741.63;;;1.14;100.00
27202;BME280;14717;46.924;15.474;2023-01-29T09:22:06;98740.56;;;1.22;100.00
27202;BME280;14717;46.924;15.474;2023-01-29T09:24:31;98740.78;;;1.27;100.00
27202;BME280;14717;46.924;15.474;2023-01-29T09:26:59;98748.25;;;1.44;100.00
27202;BME280;14717;46.924;15.474;2023-01-29T09:29:24;98747.41;;;1.50;100.00
27202;BME280;14717;46.924;15.474;2023-01-29T09:31:50;98748.22;;;1.57;100.00
27202;BME280;14717;46.924;15.474;2023-01-29T09:34:15;98753.03;;;1.61;100.00
27202;BME280;14717;46.924;15.474;2023-01-29T09:36:40;98757.22;;;1.51;100.00
27202;BME280;14717;46.924;15.474;2023-01-29T09:39:06;98754.50;;;1.57;99.71
27202;BME280;14717;46.924;15.474;2023-01-29T09:41:42;98757.81;;;1.66;99.20
27202;BME280;14717;46.924;15.474;2023-01-29T09:46:44;98764.84;;;1.92;97.49
27202;BME280;14717;46.924;15.474;2023-01-29T09:49:20;98767.88;;;2.09;97.61
27202;BME280;14717;46.924;15.474;2023-01-29T09:51:51;98758.31;;;1.93;96.05
27202;BME280;14717;46.924;15.474;2023-01-29T09:54:28;98750.47;;;2.10;97.17
27202;BME280;14717;46.924;15.474;2023-01-29T09:56:55;98758.22;;;2.12;95.63
27202;BME280;14717;46.924;15.474;2023-01-29T09:59:22;98761.78;;;2.13;95.83
27202;BME280;14717;46.924;15.474;2023-01-29T10:02:00;98758.19;;;2.19;95.99
27202;BME280;14717;46.924;15.474;2023-01-29T10:04:54;98764.28;;;2.14;93.86
27202;BME280;14717;46.924;15.474;2023-01-29T10:10:13;98760.13;;;2.12;93.97
27202;BME280;14717;46.924;15.474;2023-01-29T10:12:59;98761.81;;;2.07;93.09
27202;BME280;14717;46.924;15.474;2023-01-29T10:21:21;98756.78;;;2.04;92.26
27202;BME280;14717;46.924;15.474;2023-01-29T10:26:35;98756.75;;;2.10;91.21
27202;BME280;14717;46.924;15.474;2023-01-29T10:29:05;98746.19;;;2.26;92.55
27202;BME280;14717;46.924;15.474;2023-01-29T10:31:32;98747.59;;;2.35;92.16
27202;BME280;14717;46.924;15.474;2023-01-29T10:34:24;98737.22;;;2.50;91.47
27202;BME280;14717;46.924;15.474;2023-01-29T10:36:54;98732.72;;;2.62;90.92
27202;BME280;14717;46.924;15.474;2023-01-29T10:39:22;98730.34;;;2.72;90.78
27202;BME280;14717;46.924;15.474;2023-01-29T10:42:27;98743.28;;;2.52;89.53
27202;BME280;14717;46.924;15.474;2023-01-29T10:45:16;98735.16;;;2.46;89.85
27202;BME280;14717;46.924;15.474;2023-01-29T10:48:30;98731.22;;;2.42;90.78
27202;BME280;14717;46.924;15.474;2023-01-29T10:50:54;98724.50;;;2.38;89.25
27202;BME280;14717;46.924;15.474;2023-01-29T10:59:54;98726.88;;;2.28;89.89
27202;BME280;14717;46.924;15.474;2023-01-29T11:02:23;98721.22;;;2.29;89.21
27202;BME280;14717;46.924;15.474;2023-01-29T11:04:48;98732.28;;;2.34;90.10
27202;BME280;14717;46.924;15.474;2023-01-29T11:07:16;98725.81;;;2.35;89.64
27202;BME280;14717;46.924;15.474;2023-01-29T11:09:48;98723.06;;;2.35;89.07
27202;BME280;14717;46.924;15.474;2023-01-29T11:12:19;98720.97;;;2.37;89.51
27202;BME280;14717;46.924;15.474;2023-01-29T11:15:06;98719.44;;;2.41;90.79
27202;BME280;14717;46.924;15.474;2023-01-29T11:17:37;98712.97;;;2.42;89.58
27202;BME280;14717;46.924;15.474;2023-01-29T11:20:05;98708.72;;;2.46;88.83
27202;BME280;14717;46.924;15.474;2023-01-29T11:22:30;98704.91;;;2.53;89.29
27202;BME280;14717;46.924;15.474;2023-01-29T11:27:46;98697.88;;;2.64;88.22
27202;BME280;14717;46.924;15.474;2023-01-29T11:30:38;98689.47;;;2.65;88.66
27202;BME280;14717;46.924;15.474;2023-01-29T11:35:29;98693.19;;;2.71;87.98
27202;BME280;14717;46.924;15.474;2023-01-29T11:38:27;98693.94;;;2.60;87.36
27202;BME280;14717;46.924;15.474;2023-01-29T11:40:51;98688.94;;;2.57;87.47
27202;BME280;14717;46.924;15.474;2023-01-29T11:45:57;98673.84;;;2.79;87.46
27202;BME280;14717;46.924;15.474;2023-01-29T11:48:39;98667.88;;;2.64;85.38
27202;BME280;14717;46.924;15.474;2023-01-29T11:51:05;98670.78;;;2.69;87.30
27202;BME280;14717;46.924;15.474;2023-01-29T11:56:02;98664.28;;;2.70;87.04
27202;BME280;14717;46.924;15.474;2023-01-29T11:58:31;98657.47;;;2.79;87.55
27202;BME280;14717;46.924;15.474;2023-01-29T12:00:58;98655.34;;;2.81;85.13
27202;BME280;14717;46.924;15.474;2023-01-29T12:03:34;98655.81;;;2.78;84.78
27202;BME280;14717;46.924;15.474;2023-01-29T12:06:16;98650.81;;;2.75;83.85
27202;BME280;14717;46.924;15.474;2023-01-29T12:08:42;98643.94;;;2.66;83.12
27202;BME280;14717;46.924;15.474;2023-01-29T12:11:32;98635.25;;;2.75;84.28
27202;BME280;14717;46.924;15.474;2023-01-29T12:14:03;98626.69;;;2.72;85.10
27202;BME280;14717;46.924;15.474;2023-01-29T12:19:44;98631.84;;;2.62;84.54
27202;BME280;14717;46.924;15.474;2023-01-29T12:25:20;98628.72;;;2.58;83.43
27202;BME280;14717;46.924;15.474;2023-01-29T12:30:47;98646.22;;;2.69;85.56
27202;BME280;14717;46.924;15.474;2023-01-29T12:33:37;98640.84;;;2.62;84.07
27202;BME280;14717;46.924;15.474;2023-01-29T12:36:20;98639.63;;;2.58;84.65
27202;BME280;14717;46.924;15.474;2023-01-29T12:38:47;98630.53;;;2.64;84.54
27202;BME280;14717;46.924;15.474;2023-01-29T12:44:10;98611.75;;;2.56;84.53
27202;BME280;14717;46.924;15.474;2023-01-29T12:46:42;98609.41;;;2.60;83.54
27202;BME280;14717;46.924;15.474;2023-01-29T12:49:18;98624.75;;;2.54;83.75
27202;BME280;14717;46.924;15.474;2023-01-29T12:52:17;98621.75;;;2.62;85.76
27202;BME280;14717;46.924;15.474;2023-01-29T12:54:51;98619.72;;;2.58;83.50
27202;BME280;14717;46.924;15.474;2023-01-29T12:58:09;98621.97;;;2.61;84.07
27202;BME280;14717;46.924;15.474;2023-01-29T13:00:21;98614.72;;;2.55;84.50
27202;BME280;14717;46.924;15.474;2023-01-29T13:02:59;98602.13;;;2.54;84.56
27202;BME280;14717;46.924;15.474;2023-01-29T13:05:33;98597.44;;;2.61;85.07
27202;BME280;14717;46.924;15.474;2023-01-29T13:08:08;98604.72;;;2.67;83.62
27202;BME280;14717;46.924;15.474;2023-01-29T13:10:40;98599.56;;;2.59;82.53
27202;BME280;14717;46.924;15.474;2023-01-29T13:15:41;98591.81;;;2.56;82.25
27202;BME280;14717;46.924;15.474;2023-01-29T13:18:29;98592.50;;;2.69;82.06
27202;BME280;14717;46.924;15.474;2023-01-29T13:20:59;98590.97;;;2.80;83.52
27202;BME280;14717;46.924;15.474;2023-01-29T13:23:31;98591.56;;;2.82;83.54
27202;BME280;14717;46.924;15.474;2023-01-29T13:25:58;98583.53;;;2.87;82.37
27202;BME280;14717;46.924;15.474;2023-01-29T13:28:25;98579.50;;;2.71;83.53
27202;BME280;14717;46.924;15.474;2023-01-29T13:33:35;98577.69;;;2.65;83.01
27202;BME280;14717;46.924;15.474;2023-01-29T13:36:01;98572.81;;;2.67;83.37
27202;BME280;14717;46.924;15.474;2023-01-29T13:38:31;98577.47;;;2.67;82.20
27202;BME280;14717;46.924;15.474;2023-01-29T13:41:05;98570.03;;;2.74;82.24
27202;BME280;14717;46.924;15.474;2023-01-29T13:43:40;98567.53;;;2.72;83.16
27202;BME280;14717;46.924;15.474;2023-01-29T13:46:13;98568.06;;;2.63;82.68
27202;BME280;14717;46.924;15.474;2023-01-29T13:48:44;98581.22;;;2.66;82.93
27202;BME280;14717;46.924;15.474;2023-01-29T13:51:14;98581.59;;;2.69;83.56
27202;BME280;14717;46.924;15.474;2023-01-29T13:53:55;98580.19;;;2.67;83.01
27202;BME280;14717;46.924;15.474;2023-01-29T13:59:04;98582.91;;;2.67;84.43
27202;BME280;14717;46.924;15.474;2023-01-29T14:04:30;98583.13;;;2.65;84.38
27202;BME280;14717;46.924;15.474;2023-01-29T14:06:57;98586.91;;;2.64;83.50
27202;BME280;14717;46.924;15.474;2023-01-29T14:12:03;98574.13;;;2.65;83.67
27202;BME280;14717;46.924;15.474;2023-01-29T14:17:14;98566.00;;;2.58;83.81
27202;BME280;14717;46.924;15.474;2023-01-29T14:20:00;98571.25;;;2.60;83.10
27202;BME280;14717;46.924;15.474;2023-01-29T14:22:28;98565.78;;;2.60;83.10
27202;BME280;14717;46.924;15.474;2023-01-29T14:24:57;98561.75;;;2.62;83.48
27202;BME280;14717;46.924;15.474;2023-01-29T14:27:24;98561.81;;;2.56;83.75
27202;BME280;14717;46.924;15.474;2023-01-29T14:29:50;98559.91;;;2.63;84.25
27202;BME280;14717;46.924;15.474;2023-01-29T14:32:22;98555.88;;;2.65;85.80
27202;BME280;14717;46.924;15.474;2023-01-29T14:35:18;98550.03;;;2.62;85.21
27202;BME280;14717;46.924;15.474;2023-01-29T14:37:46;98563.22;;;2.65;85.01
27202;BME280;14717;46.924;15.474;2023-01-29T14:42:54;98558.88;;;2.57;85.05
27202;BME280;14717;46.924;15.474;2023-01-29T14:45:41;98554.28;;;2.58;84.68
27202;BME280;14717;46.924;15.474;2023-01-29T14:48:16;98560.19;;;2.55;84.98
27202;BME280;14717;46.924;15.474;2023-01-29T14:50:47;98560.63;;;2.52;85.22
27202;BME280;14717;46.924;15.474;2023-01-29T14:53:21;98561.81;;;2.56;84.93
27202;BME280;14717;46.924;15.474;2023-01-29T14:56:02;98552.16;;;2.60;84.81
27202;BME280;14717;46.924;15.474;2023-01-29T14:58:38;98558.22;;;2.62;84.81
27202;BME280;14717;46.924;15.474;2023-01-29T15:01:18;98554.66;;;2.61;83.95
27202;BME280;14717;46.924;15.474;2023-01-29T15:04:13;98557.06;;;2.52;85.11
27202;BME280;14717;46.924;15.474;2023-01-29T15:06:44;98556.38;;;2.56;84.93
27202;BME280;14717;46.924;15.474;2023-01-29T15:14:41;98562.38;;;2.47;83.68
27202;BME280;14717;46.924;15.474;2023-01-29T15:17:21;98569.69;;;2.46;82.74
27202;BME280;14717;46.924;15.474;2023-01-29T15:19:47;98558.94;;;2.51;83.70
27202;BME280;14717;46.924;15.474;2023-01-29T15:22:18;98551.41;;;2.53;85.07
27202;BME280;14717;46.924;15.474;2023-01-29T15:24:46;98548.03;;;2.51;84.95
27202;BME280;14717;46.924;15.474;2023-01-29T15:27:14;98554.56;;;2.50;85.13